Time;durP1;ratioP1;P1;durP2;ratioP2;P2;SDS_P1;SDS_P2;PMS_P1;PMS_P2;Temp;Humidity;BMP_temperature;BMP_pressure;BME280_temperature;BME280_humidity;BME280_pressure;Samples;Min_cycle;Max_cycle;Signal;HPM_P1;HPM_P2
2022/06/28 00:01:32;;;;;;;8.83;7.13;;;;;;;17.40;90.99;101955.25;4966898;28;20190;-72
2022/06/28 00:03:58;;;;;;;8.43;7.63;;;;;;;17.36;90.85;101945.69;4935185;29;20253;-71
2022/06/28 00:06:23;;;;;;;9.17;7.33;;;;;;;17.35;91.07;101937.88;4935588;29;20268;-72
2022/06/28 00:08:49;;;;;;;7.43;6.83;;;;;;;17.36;91.09;101930.16;4934666;29;20583;-71
2022/06/28 00:11:14;;;;;;;9.63;8.43;;;;;;;17.33;90.91;101927.56;4935755;29;20806;-71
2022/06/28 00:13:40;;;;;;;10.20;9.20;;;;;;;17.31;90.99;101942.19;4934625;29;20186;-71
2022/06/28 00:16:06;;;;;;;9.87;8.93;;;;;;;17.34;90.77;101960.34;4935249;29;20335;-71
2022/06/28 00:18:39;;;;;;;10.43;9.53;;;;;;;17.37;90.80;101967.28;4934067;29;20213;-71
2022/06/28 00:21:06;;;;;;;11.53;10.30;;;;;;;17.33;90.88;101973.28;4930633;29;20178;-72
2022/06/28 00:23:32;;;;;;;11.50;10.30;;;;;;;17.34;90.74;101968.13;4935126;29;20209;-71
2022/06/28 00:25:58;;;;;;;11.03;9.90;;;;;;;17.39;90.50;101950.03;4934960;29;20182;-71
2022/06/28 00:28:24;;;;;;;10.07;9.07;;;;;;;17.34;90.45;101944.81;4965635;28;20627;-71
2022/06/28 00:30:50;;;;;;;11.90;9.77;;;;;;;17.34;90.25;101954.28;4965371;28;20193;-71
2022/06/28 00:33:16;;;;;;;10.40;9.30;;;;;;;17.32;90.03;101954.28;4935208;29;20182;-72
2022/06/28 00:35:41;;;;;;;10.27;8.80;;;;;;;17.34;89.73;101964.66;4934451;29;20634;-71
2022/06/28 00:38:07;;;;;;;9.50;8.57;;;;;;;17.32;89.79;101962.03;4965790;28;20222;-72
2022/06/28 00:40:38;;;;;;;9.37;8.23;;;;;;;17.35;89.60;101964.66;4965767;28;20817;-69
2022/06/28 00:43:04;;;;;;;8.63;7.80;;;;;;;17.35;90.17;101959.50;4948801;28;20225;-72
2022/06/28 00:45:30;;;;;;;8.03;7.23;;;;;;;17.34;89.79;101960.34;4934867;29;20217;-72
2022/06/28 00:47:55;;;;;;;8.17;7.37;;;;;;;17.37;90.08;101962.94;4934365;29;20224;-72
2022/06/28 00:50:21;;;;;;;9.47;7.47;;;;;;;17.37;90.16;101969.88;4965727;28;20254;-72
2022/06/28 00:53:22;;;;;;;9.70;7.93;;;;;;;17.42;90.06;101971.69;4964947;28;20190;-72
2022/06/28 00:55:48;;;;;;;8.10;7.30;;;;;;;17.42;89.90;101971.69;4935086;29;20203;-71
2022/06/28 00:58:15;;;;;;;8.27;7.50;;;;;;;17.42;89.79;101974.28;4937527;29;20268;-71
2022/06/28 01:00:43;;;;;;;9.17;7.67;;;;;;;17.42;89.91;101987.25;4934692;29;20189;-72
2022/06/28 01:03:19;;;;;;;9.60;7.93;;;;;;;17.39;89.82;101982.00;4965049;28;20655;-72
2022/06/28 01:05:47;;;;;;;8.53;7.63;;;;;;;17.37;90.03;101981.06;4934081;29;20185;-69
2022/06/28 01:08:13;;;;;;;9.60;8.47;;;;;;;17.33;90.35;101989.69;4934418;29;20327;-72
2022/06/28 01:10:40;;;;;;;8.27;7.20;;;;;;;17.33;90.51;101987.09;4963492;28;20221;-73
2022/06/28 01:13:07;;;;;;;8.60;7.07;;;;;;;17.34;90.40;101982.78;4965217;28;20559;-72
2022/06/28 01:15:36;;;;;;;9.33;7.40;;;;;;;17.34;90.50;101980.19;4965476;28;20563;-71
2022/06/28 01:18:04;;;;;;;7.67;6.97;;;;;;;17.25;90.45;101977.50;4965126;28;20264;-71
2022/06/28 01:20:50;;;;;;;8.40;7.60;;;;;;;17.20;90.34;101980.06;4933332;29;20202;-70
2022/06/28 01:23:35;;;;;;;8.37;7.43;;;;;;;17.15;90.40;101986.03;4927879;29;20205;-72
2022/06/28 01:26:12;;;;;;;9.70;7.07;;;;;;;17.07;90.83;101978.19;4964117;28;20267;-70
2022/06/28 01:28:42;;;;;;;8.03;7.23;;;;;;;17.04;91.36;101972.97;4932845;29;20206;-71
2022/06/28 01:31:28;;;;;;;9.47;7.90;;;;;;;17.01;91.31;101982.41;4933721;29;20682;-70
2022/06/28 01:33:58;;;;;;;7.77;6.97;;;;;;;16.99;91.62;101986.72;4932896;29;20955;-70
2022/06/28 01:36:23;;;;;;;9.70;7.43;;;;;;;16.92;91.81;101990.94;4934177;28;20547;-69
2022/06/28 01:38:50;;;;;;;8.77;7.87;;;;;;;16.92;91.27;101988.38;4944896;28;20226;-70
2022/06/28 01:41:34;;;;;;;8.87;8.00;;;;;;;16.89;91.77;101997.78;4947826;29;20249;-70
2022/06/28 01:44:21;;;;;;;7.73;7.03;;;;;;;16.86;92.00;101995.19;4931773;29;20186;-70
2022/06/28 01:47:11;;;;;;;10.30;9.30;;;;;;;16.75;92.13;102002.81;4932655;29;20218;-69
2022/06/28 01:49:55;;;;;;;10.90;9.77;;;;;;;16.64;93.28;102013.84;4933313;29;20197;-71
2022/06/28 01:52:23;;;;;;;8.93;8.07;;;;;;;16.61;93.64;102024.16;4932208;29;20185;-72
2022/06/28 01:54:48;;;;;;;8.30;7.53;;;;;;;16.63;93.36;102012.97;4963817;28;20264;-72
2022/06/28 01:57:15;;;;;;;9.80;7.40;;;;;;;16.67;93.03;102014.75;4964256;28;20190;-72
2022/06/28 01:59:48;;;;;;;8.73;6.53;;;;;;;16.68;92.93;102002.72;4963762;28;20198;-72
2022/06/28 02:02:40;;;;;;;6.77;6.00;;;;;;;16.71;92.44;101987.25;4957392;28;20211;-72
2022/06/28 02:05:25;;;;;;;7.57;6.87;;;;;;;16.72;92.67;101984.63;4931771;29;20194;-70
2022/06/28 02:07:52;;;;;;;8.20;6.57;;;;;;;16.67;93.22;101986.31;4932058;29;20253;-72
2022/06/28 02:10:20;;;;;;;9.23;7.77;;;;;;;16.57;92.95;101992.22;4963453;28;20695;-71
2022/06/28 02:12:46;;;;;;;9.60;7.23;;;;;;;16.55;92.97;101999.09;4963883;28;20197;-72
2022/06/28 02:15:13;;;;;;;8.73;7.40;;;;;;;16.57;92.77;102004.28;4963871;28;20280;-70
2022/06/28 02:17:41;;;;;;;10.03;8.37;;;;;;;16.57;93.14;102006.88;4930973;29;20781;-70
2022/06/28 02:20:07;;;;;;;10.93;9.77;;;;;;;16.56;93.15;102023.22;4931807;29;20249;-70
2022/06/28 02:22:33;;;;;;;10.47;9.37;;;;;;;16.54;92.85;102025.78;4963378;28;20200;-70
2022/06/28 02:24:59;;;;;;;13.17;10.23;;;;;;;16.53;93.60;102024.03;4964040;28;20190;-70
2022/06/28 02:27:25;;;;;;;12.77;11.47;;;;;;;16.54;93.50;102033.53;4963464;28;20589;-71
2022/06/28 02:29:50;;;;;;;13.83;11.60;;;;;;;16.52;93.83;102024.03;4963728;28;20675;-70
2022/06/28 02:32:17;;;;;;;13.80;12.40;;;;;;;16.49;93.70;102024.84;4931901;29;20551;-70
2022/06/28 02:40:22;;;;;;;19.20;12.87;;;;;;;16.48;93.97;102012.78;4962871;28;20189;-70
2022/06/28 02:42:49;;;;;;;12.73;11.13;;;;;;;16.42;94.59;102001.47;4946581;29;20196;-69
2022/06/28 02:45:15;;;;;;;14.80;12.10;;;;;;;16.42;94.30;102006.63;4962571;28;20568;-71
2022/06/28 02:47:40;;;;;;;14.67;12.17;;;;;;;16.39;94.44;102010.03;4931112;29;20217;-70
2022/06/28 02:50:07;;;;;;;14.23;12.10;;;;;;;16.41;94.22;102012.66;4930736;29;20256;-70
2022/06/28 02:52:32;;;;;;;14.93;12.67;;;;;;;16.41;94.39;102003.22;4931270;29;20237;-70
2022/06/28 02:54:58;;;;;;;15.20;12.43;;;;;;;16.38;94.58;102003.13;4930853;29;20679;-70
2022/06/28 02:57:23;;;;;;;12.90;11.60;;;;;;;16.34;94.58;102006.50;4930406;29;20247;-71
2022/06/28 02:59:49;;;;;;;13.07;11.50;;;;;;;16.31;93.93;101993.50;4930755;29;20205;-70
2022/06/28 03:02:14;;;;;;;13.50;12.10;;;;;;;16.29;94.19;102000.41;4930694;29;20217;-70
2022/06/28 03:04:40;;;;;;;13.83;11.77;;;;;;;16.24;94.31;102003.75;4930599;29;20194;-71
2022/06/28 03:07:06;;;;;;;17.00;12.07;;;;;;;16.23;93.88;101999.44;4930548;29;20190;-70
2022/06/28 03:09:31;;;;;;;14.23;11.53;;;;;;;16.23;93.95;102002.00;4932027;29;20771;-70
2022/06/28 03:11:57;;;;;;;14.23;12.77;;;;;;;16.22;93.89;102013.22;4932137;29;20212;-70
2022/06/28 03:14:22;;;;;;;15.37;11.90;;;;;;;16.19;94.23;102020.91;4932378;29;20224;-71
2022/06/28 03:16:48;;;;;;;14.40;12.37;;;;;;;16.19;94.51;102026.97;4963247;28;20248;-70
2022/06/28 03:19:13;;;;;;;19.00;12.93;;;;;;;16.15;94.94;102026.88;4931657;29;20290;-70
2022/06/28 03:21:39;;;;;;;14.10;12.60;;;;;;;16.15;95.73;102029.44;4962679;28;20694;-70
2022/06/28 03:24:06;;;;;;;18.30;12.80;;;;;;;16.15;95.13;102038.09;4931532;29;20232;-70
2022/06/28 03:26:32;;;;;;;13.40;11.77;;;;;;;16.15;94.85;102040.69;4933600;29;20193;-71
2022/06/28 03:28:57;;;;;;;14.90;12.93;;;;;;;16.14;95.21;102049.28;4963890;28;20208;-70
2022/06/28 03:31:22;;;;;;;13.13;11.83;;;;;;;16.13;95.48;102050.13;4967145;28;20569;-70
2022/06/28 03:33:48;;;;;;;14.47;11.97;;;;;;;16.08;95.68;102064.69;4966460;28;20217;-70
2022/06/28 03:36:14;;;;;;;12.67;10.77;;;;;;;15.95;95.93;102057.56;4966920;28;20581;-70
2022/06/28 03:38:42;;;;;;;11.77;10.07;;;;;;;15.96;95.98;102068.75;4966810;28;20256;-70
2022/06/28 03:41:22;;;;;;;11.30;9.57;;;;;;;15.95;95.93;102078.25;4933629;29;20193;-70
2022/06/28 03:43:51;;;;;;;12.13;9.40;;;;;;;15.93;95.72;102084.22;4934976;29;20193;-70
2022/06/28 03:46:17;;;;;;;10.70;9.60;;;;;;;15.87;96.56;102084.09;4966718;28;20193;-70
2022/06/28 03:48:47;;;;;;;15.33;10.63;;;;;;;15.84;97.14;102096.97;4934517;29;20265;-70
2022/06/28 03:51:13;;;;;;;12.17;10.27;;;;;;;15.85;97.08;102094.44;4935921;29;20204;-70
2022/06/28 03:53:58;;;;;;;13.53;10.23;;;;;;;15.92;97.01;102105.72;4935445;29;20212;-70
2022/06/28 03:56:31;;;;;;;11.73;10.53;;;;;;;15.88;96.87;102115.13;4935034;29;20537;-71
2022/06/28 03:58:57;;;;;;;16.77;10.33;;;;;;;15.93;96.66;102104.91;4937455;29;20304;-70
2022/06/28 04:01:22;;;;;;;11.80;10.53;;;;;;;15.97;96.81;102104.13;4935435;29;20197;-70
2022/06/28 04:03:48;;;;;;;11.83;9.83;;;;;;;15.98;96.90;102103.25;4934377;29;20190;-71
2022/06/28 04:06:14;;;;;;;12.03;9.70;;;;;;;16.05;96.75;102107.69;4934525;29;20551;-71
2022/06/28 04:08:40;;;;;;;10.80;9.70;;;;;;;16.07;96.68;102108.59;4965658;28;20206;-70
2022/06/28 04:11:14;;;;;;;14.57;10.53;;;;;;;16.07;96.44;102112.03;4935790;29;20208;-70
2022/06/28 04:13:44;;;;;;;12.13;10.77;;;;;;;16.05;96.58;102120.59;4965853;28;20182;-70
2022/06/28 04:16:10;;;;;;;13.70;10.47;;;;;;;16.06;96.42;102125.81;4966269;28;20285;-71
2022/06/28 04:18:36;;;;;;;13.47;10.87;;;;;;;16.10;96.46;102121.56;4933251;29;20699;-70
2022/06/28 04:21:16;;;;;;;12.47;11.17;;;;;;;16.20;96.20;102134.66;4935656;29;20197;-71
2022/06/28 04:23:43;;;;;;;13.73;10.67;;;;;;;16.28;95.68;102127.91;4950234;28;20213;-70
2022/06/28 04:26:09;;;;;;;13.13;9.97;;;;;;;16.39;95.37;102134.13;4949716;28;20194;-70
2022/06/28 04:28:41;;;;;;;14.03;10.47;;;;;;;16.44;95.40;102132.53;4966292;28;20213;-70
2022/06/28 04:31:11;;;;;;;15.03;9.97;;;;;;;16.55;94.77;102141.34;4966123;28;20666;-70
2022/06/28 04:33:37;;;;;;;13.17;9.50;;;;;;;16.58;94.26;102150.88;4966258;28;20196;-70
2022/06/28 04:36:04;;;;;;;10.97;9.33;;;;;;;16.57;94.21;102156.88;4965823;28;20194;-70
2022/06/28 04:38:32;;;;;;;11.07;9.27;;;;;;;16.54;94.78;102157.69;4934087;29;20217;-70
2022/06/28 04:41:09;;;;;;;12.77;10.10;;;;;;;16.58;94.25;102156.03;4933047;29;20240;-71
2022/06/28 04:43:58;;;;;;;17.90;10.07;;;;;;;16.60;94.20;102160.38;4931981;29;20210;-71
2022/06/28 04:46:30;;;;;;;10.83;9.33;;;;;;;16.65;94.43;102153.56;4933569;29;20185;-70
2022/06/28 04:48:58;;;;;;;17.90;14.10;;;;;;;16.68;94.35;102161.38;4965445;28;20271;-70
2022/06/28 04:51:33;;;;;;;21.77;14.50;;;;;;;16.67;93.97;102157.03;4933674;29;20584;-70
2022/06/28 04:53:59;;;;;;;15.60;14.03;;;;;;;16.74;93.92;102150.25;4933030;29;20272;-70
2022/06/28 04:56:24;;;;;;;20.27;16.03;;;;;;;16.74;93.97;102153.72;4933708;29;20204;-70
2022/06/28 04:58:51;;;;;;;20.37;15.40;;;;;;;16.82;93.64;102156.41;4932996;29;20228;-70
2022/06/28 05:01:17;;;;;;;21.70;17.87;;;;;;;16.87;93.52;102153.06;4933799;29;20197;-70
2022/06/28 05:03:45;;;;;;;19.90;16.77;;;;;;;16.95;92.88;102143.66;4932995;29;20212;-70
2022/06/28 05:06:30;;;;;;;20.13;16.00;;;;;;;16.99;92.97;102145.44;4936495;29;20756;-70
2022/06/28 05:08:58;;;;;;;18.93;14.93;;;;;;;17.06;92.11;102149.00;4942757;29;20209;-70
2022/06/28 05:11:24;;;;;;;18.13;15.77;;;;;;;17.09;91.92;102142.13;4933104;29;20181;-70
2022/06/28 05:14:13;;;;;;;17.30;15.23;;;;;;;17.15;91.41;102144.81;4928687;29;20253;-71
2022/06/28 05:16:38;;;;;;;19.37;15.93;;;;;;;17.12;91.35;102146.47;4932824;29;20902;-70
2022/06/28 05:19:05;;;;;;;17.97;15.77;;;;;;;17.15;91.24;102152.59;4933053;29;20225;-70
2022/06/28 05:21:35;;;;;;;16.93;15.13;;;;;;;17.20;91.43;102152.63;4932657;29;20178;-71
2022/06/28 05:24:00;;;;;;;19.37;15.57;;;;;;;17.24;91.07;102144.06;4933039;29;20697;-71
2022/06/28 05:26:55;;;;;;;17.43;15.57;;;;;;;17.41;90.79;102140.03;4930328;29;20851;-72
2022/06/28 05:29:21;;;;;;;16.80;14.60;;;;;;;17.58;90.32;102141.94;4932907;29;20217;-71
2022/06/28 05:31:47;;;;;;;19.57;17.43;;;;;;;17.57;89.68;102147.09;4932290;29;20204;-72
2022/06/28 05:34:13;;;;;;;21.27;18.70;;;;;;;17.49;89.28;102151.31;4932778;29;20194;-70
2022/06/28 05:36:39;;;;;;;19.40;17.40;;;;;;;17.52;89.35;102146.19;4932671;29;20209;-70
2022/06/28 05:39:05;;;;;;;20.93;18.57;;;;;;;17.44;89.29;102140.03;4932557;29;20222;-71
2022/06/28 05:41:32;;;;;;;19.20;17.27;;;;;;;17.71;88.95;102136.06;4934176;29;20205;-70
2022/06/28 05:43:58;;;;;;;18.17;16.27;;;;;;;17.71;88.41;102132.59;4932381;29;20190;-72
2022/06/28 05:46:25;;;;;;;19.73;17.50;;;;;;;17.69;88.52;102126.53;4934097;29;20272;-70
2022/06/28 05:48:50;;;;;;;20.67;18.60;;;;;;;17.72;88.73;102129.13;4933458;29;20741;-70
2022/06/28 05:51:16;;;;;;;20.53;17.90;;;;;;;17.56;88.75;102129.84;4931917;29;20221;-70
2022/06/28 05:53:41;;;;;;;20.03;18.03;;;;;;;17.65;88.72;102137.72;4932050;29;20200;-70
2022/06/28 05:56:07;;;;;;;20.77;18.67;;;;;;;17.78;87.81;102132.66;4932167;29;20185;-71
2022/06/28 05:58:32;;;;;;;18.87;16.87;;;;;;;17.90;86.98;102137.13;4931930;29;20714;-71
2022/06/28 06:00:58;;;;;;;18.07;16.30;;;;;;;18.06;86.56;102139.03;4931882;29;20201;-71
2022/06/28 06:03:24;;;;;;;20.43;16.63;;;;;;;18.26;85.34;102130.56;4964291;28;20842;-72
2022/06/28 06:05:50;;;;;;;18.10;15.70;;;;;;;18.25;85.11;102128.84;4963809;28;20252;-71
2022/06/28 06:08:16;;;;;;;16.30;14.77;;;;;;;18.26;84.73;102125.38;4964394;28;20261;-71
2022/06/28 06:10:43;;;;;;;15.23;13.67;;;;;;;18.50;83.27;102125.63;4931923;29;20193;-71
2022/06/28 06:13:08;;;;;;;15.53;13.97;;;;;;;18.55;81.75;102130.81;4964318;28;20206;-71
2022/06/28 06:15:34;;;;;;;14.33;13.03;;;;;;;18.59;81.89;102128.28;4933343;29;20197;-71
2022/06/28 06:17:59;;;;;;;14.60;13.17;;;;;;;18.54;82.22;102134.28;4933005;29;20232;-71
2022/06/28 06:20:25;;;;;;;18.17;13.17;;;;;;;18.81;82.13;102129.28;4964307;28;20197;-71
2022/06/28 06:22:51;;;;;;;14.20;12.80;;;;;;;18.72;81.60;102135.31;4963775;28;20228;-72
2022/06/28 06:25:36;;;;;;;15.03;12.90;;;;;;;18.59;81.51;102130.88;4951344;28;20213;-69
2022/06/28 06:28:02;;;;;;;13.50;12.27;;;;;;;18.50;81.84;102133.41;4963887;28;20209;-71
2022/06/28 06:30:27;;;;;;;14.60;12.57;;;;;;;18.78;81.57;102134.44;4933264;29;20193;-71
2022/06/28 06:33:25;;;;;;;15.80;14.17;;;;;;;19.08;79.93;102140.72;4941892;29;20280;-71
2022/06/28 06:36:09;;;;;;;14.77;13.20;;;;;;;19.29;79.34;102142.56;4933647;29;20200;-71
2022/06/28 06:38:35;;;;;;;15.10;13.23;;;;;;;19.10;79.45;102136.41;4963629;28;20305;-71
2022/06/28 06:41:01;;;;;;;14.37;13.03;;;;;;;18.81;80.64;102144.88;4963935;28;20197;-70
2022/06/28 06:43:28;;;;;;;18.77;16.13;;;;;;;18.67;81.93;102159.47;4963491;28;20286;-71
2022/06/28 06:46:13;;;;;;;21.10;19.00;;;;;;;18.17;84.67;102155.53;4933188;28;20198;-71
2022/06/28 06:48:40;;;;;;;20.87;18.63;;;;;;;18.35;84.69;102161.81;4931408;29;20223;-71
2022/06/28 06:51:05;;;;;;;17.57;15.73;;;;;;;18.49;83.52;102167.09;4946970;28;20211;-71
2022/06/28 06:53:31;;;;;;;17.60;15.80;;;;;;;18.66;81.42;102170.72;4932697;29;20224;-71
2022/06/28 06:55:57;;;;;;;16.30;14.57;;;;;;;18.90;80.59;102168.28;4932324;29;20209;-72
2022/06/28 06:58:22;;;;;;;16.57;14.97;;;;;;;19.19;79.06;102164.13;4932625;29;20222;-71
2022/06/28 07:00:49;;;;;;;17.17;15.07;;;;;;;19.34;77.99;102165.13;4932265;29;20214;-72
2022/06/28 07:03:16;;;;;;;14.47;13.17;;;;;;;19.51;77.26;102165.19;4931071;29;20707;-71
2022/06/28 07:05:41;;;;;;;13.67;11.20;;;;;;;19.98;74.11;102163.59;4931097;29;20202;-71
2022/06/28 07:08:07;;;;;;;10.63;9.57;;;;;;;19.95;74.47;102169.69;4932047;29;20702;-72
2022/06/28 07:10:39;;;;;;;10.33;7.90;;;;;;;20.47;72.94;102165.44;4963336;28;20655;-71
2022/06/28 07:13:05;;;;;;;9.17;7.93;;;;;;;20.05;73.20;102178.38;4962753;28;20185;-71
2022/06/28 07:15:30;;;;;;;9.40;7.53;;;;;;;19.80;74.62;102184.41;4930915;29;20658;-71
2022/06/28 07:17:56;;;;;;;8.97;8.07;;;;;;;19.48;75.84;102179.03;4930492;29;20214;-71
2022/06/28 07:20:21;;;;;;;8.47;7.57;;;;;;;19.45;75.78;102184.25;4932610;29;20185;-71
2022/06/28 07:22:47;;;;;;;8.20;7.53;;;;;;;19.68;75.33;102189.53;4940776;29;20260;-71
2022/06/28 07:25:17;;;;;;;10.80;6.73;;;;;;;20.40;72.02;102185.41;4963190;28;20189;-71
2022/06/28 07:27:43;;;;;;;8.93;6.07;;;;;;;20.91;70.81;102184.56;4933249;29;20210;-72
2022/06/28 07:30:09;;;;;;;7.67;6.10;;;;;;;20.88;69.02;102181.94;4957158;28;20237;-71
2022/06/28 07:32:36;;;;;;;7.43;5.07;;;;;;;21.25;67.84;102178.41;4933197;29;20182;-71
2022/06/28 07:35:01;;;;;;;5.03;4.53;;;;;;;21.50;65.78;102174.84;4949452;29;20197;-72
2022/06/28 07:37:27;;;;;;;6.47;4.33;;;;;;;21.93;65.92;102174.66;4949975;29;20757;-70
2022/06/28 07:39:52;;;;;;;6.10;4.60;;;;;;;22.32;63.26;102177.91;4947720;29;20558;-72
2022/06/28 07:42:47;;;;;;;5.67;4.17;;;;;;;21.59;64.01;102180.88;4944369;28;20201;-71
2022/06/28 07:45:19;;;;;;;5.23;4.00;;;;;;;21.56;65.03;102182.66;4950717;28;20655;-72
2022/06/28 07:47:49;;;;;;;4.67;4.20;;;;;;;21.84;64.56;102184.28;4930538;29;20214;-71
2022/06/28 07:53:06;;;;;;;5.93;4.20;;;;;;;21.62;64.55;102190.44;4927635;29;20194;-72
2022/06/28 07:55:51;;;;;;;5.80;3.93;;;;;;;21.97;63.73;102189.41;4943534;29;20685;-71
2022/06/28 07:58:29;;;;;;;5.30;4.30;;;;;;;21.87;63.18;102195.56;4947703;28;20224;-71
2022/06/28 08:00:55;;;;;;;5.37;3.47;;;;;;;22.05;61.22;102194.59;4962920;28;20186;-72
2022/06/28 08:03:21;;;;;;;4.70;2.97;;;;;;;22.07;60.90;102191.09;4961689;28;20197;-71
2022/06/28 08:05:48;;;;;;;5.00;3.37;;;;;;;21.66;60.63;102189.56;4948249;29;20197;-72
2022/06/28 08:08:14;;;;;;;3.13;2.27;;;;;;;22.56;60.69;102193.41;4941073;29;20209;-72
2022/06/28 08:10:41;;;;;;;4.63;3.30;;;;;;;22.42;60.28;102201.31;4943352;28;20194;-71
2022/06/28 08:13:12;;;;;;;3.40;3.10;;;;;;;22.00;61.40;102196.38;4926572;29;20685;-71
2022/06/28 08:15:38;;;;;;;5.20;3.40;;;;;;;21.60;61.37;102197.41;4945271;28;20248;-71
2022/06/28 08:18:04;;;;;;;3.80;2.30;;;;;;;22.46;58.37;102197.81;4946886;29;20712;-71
2022/06/28 08:20:31;;;;;;;3.80;1.97;;;;;;;22.65;55.84;102198.56;4949514;28;20205;-71
2022/06/28 08:22:57;;;;;;;3.83;2.53;;;;;;;23.15;56.09;102193.75;4966451;28;20547;-71
2022/06/28 08:25:23;;;;;;;4.47;2.70;;;;;;;23.42;55.65;102190.81;4965586;28;20197;-71
2022/06/28 08:27:49;;;;;;;3.97;2.30;;;;;;;23.56;54.93;102195.03;4966026;28;20599;-71
2022/06/28 08:30:14;;;;;;;4.30;2.60;;;;;;;22.79;56.14;102208.00;4934765;29;20643;-71
2022/06/28 08:32:41;;;;;;;3.50;2.20;;;;;;;23.24;54.76;102204.13;4965974;28;20205;-72
2022/06/28 08:35:07;;;;;;;5.20;2.40;;;;;;;23.61;53.74;102205.44;4965700;28;20215;-70
2022/06/28 08:37:33;;;;;;;4.40;2.10;;;;;;;23.68;52.51;102207.09;4935205;29;20205;-71
2022/06/28 08:39:58;;;;;;;4.20;2.27;;;;;;;23.84;51.54;102208.63;4935339;29;20174;-71
2022/06/28 08:42:30;;;;;;;3.83;2.10;;;;;;;23.63;51.54;102206.28;4934874;29;20194;-71
2022/06/28 08:45:00;;;;;;;3.37;1.90;;;;;;;23.96;49.40;102214.59;4935240;29;20178;-71
2022/06/28 08:47:31;;;;;;;3.00;1.60;;;;;;;23.47;50.38;102215.19;4934399;29;20578;-72
2022/06/28 08:50:00;;;;;;;3.63;1.70;;;;;;;23.36;50.95;102217.94;4935015;29;20238;-72
2022/06/28 08:52:26;;;;;;;2.60;1.47;;;;;;;23.89;49.78;102207.66;4934809;29;20194;-71
2022/06/28 08:54:52;;;;;;;5.83;1.63;;;;;;;24.25;48.71;102208.94;4934967;29;20264;-72
2022/06/28 08:57:19;;;;;;;4.07;1.70;;;;;;;24.15;48.77;102218.69;4942396;29;20193;-73
2022/06/28 08:59:47;;;;;;;1.97;1.50;;;;;;;23.77;48.24;102220.94;4953759;28;20181;-71
2022/06/28 09:02:14;;;;;;;3.57;1.20;;;;;;;24.14;46.31;102213.47;4954213;28;20189;-71
2022/06/28 09:04:44;;;;;;;4.30;1.40;;;;;;;24.09;46.58;102216.16;4951936;29;20189;-72
2022/06/28 09:07:09;;;;;;;3.10;1.35;;;;;;;24.47;45.84;102203.38;4953857;28;20200;-72
2022/06/28 09:09:35;;;;;;;3.40;1.40;;;;;;;24.54;45.04;102202.34;4953368;28;20296;-71
2022/06/28 09:12:02;;;;;;;3.72;1.35;;;;;;;24.48;43.74;102204.22;4952372;29;20229;-71
2022/06/28 09:14:31;;;;;;;2.53;1.23;;;;;;;24.76;45.16;102206.41;4953086;28;20280;-69
2022/06/28 09:16:58;;;;;;;1.98;0.93;;;;;;;24.78;41.98;102211.63;4953646;28;20185;-72
2022/06/28 09:19:37;;;;;;;3.63;1.00;;;;;;;24.86;39.75;102204.50;4953335;28;20224;-70
2022/06/28 09:22:04;;;;;;;3.25;1.20;;;;;;;24.76;41.64;102211.63;4953786;28;20658;-70
2022/06/28 09:24:29;;;;;;;2.88;1.10;;;;;;;25.26;40.62;102213.34;4953415;28;20184;-70
2022/06/28 09:27:00;;;;;;;2.03;1.00;;;;;;;25.21;37.68;102208.19;4966660;28;20212;-70
2022/06/28 09:29:26;;;;;;;1.45;0.90;;;;;;;25.41;38.62;102205.25;4953320;28;20718;-70
2022/06/28 09:31:52;;;;;;;2.67;1.05;;;;;;;25.44;39.63;102206.03;4951620;29;20204;-70
2022/06/28 09:34:17;;;;;;;2.75;1.20;;;;;;;25.40;40.90;102198.25;4952406;29;20190;-71
2022/06/28 09:36:58;;;;;;;4.35;1.30;;;;;;;25.25;42.06;102209.00;4951727;29;20197;-71
2022/06/28 09:39:28;;;;;;;2.50;1.17;;;;;;;25.63;40.30;102209.13;4953213;28;20259;-74
2022/06/28 09:41:55;;;;;;;2.38;1.30;;;;;;;25.71;40.47;102201.97;4951809;29;20244;-72
2022/06/28 09:44:25;;;;;;;3.10;1.30;;;;;;;25.51;40.33;102205.00;4952842;28;20252;-72
2022/06/28 09:46:52;;;;;;;2.72;1.27;;;;;;;25.62;41.12;102197.78;4951704;29;20770;-72
2022/06/28 09:49:18;;;;;;;2.33;1.25;;;;;;;25.62;42.09;102194.28;4951311;29;20243;-73
2022/06/28 09:51:45;;;;;;;4.03;1.55;;;;;;;26.10;42.02;102196.75;4952919;28;20605;-71
2022/06/28 09:54:11;;;;;;;2.95;1.15;;;;;;;26.13;40.65;102194.06;4951045;28;20200;-72
2022/06/28 09:56:42;;;;;;;3.50;1.20;;;;;;;25.84;41.31;102195.56;4950482;28;20196;-72
2022/06/28 09:59:09;;;;;;;3.08;1.20;;;;;;;25.55;42.70;102192.72;4974924;28;20217;-72
2022/06/28 10:01:35;;;;;;;3.15;1.17;;;;;;;24.67;42.67;102203.09;4951593;28;20193;-71
2022/06/28 10:04:01;;;;;;;3.30;1.00;;;;;;;25.66;42.12;102188.97;4952642;28;20197;-74
2022/06/28 10:06:27;;;;;;;1.73;0.73;;;;;;;25.35;41.15;102195.72;4951165;29;20195;-72
2022/06/28 10:08:53;;;;;;;2.53;0.90;;;;;;;24.84;42.01;102191.41;4953085;28;20260;-72
2022/06/28 10:11:19;;;;;;;2.35;0.82;;;;;;;23.91;42.87;102197.22;4942385;28;20193;-72
2022/06/28 10:16:48;;;;;;;3.55;0.93;;;;;;;25.69;41.47;102188.88;4932876;29;20194;-73
2022/06/28 10:19:19;;;;;;;4.38;0.93;;;;;;;25.68;40.26;102179.28;4933190;29;20221;-72
2022/06/28 10:22:13;;;;;;;3.95;0.98;;;;;;;25.83;40.92;102184.19;4932921;29;20278;-72
2022/06/28 10:25:16;;;;;;;1.70;0.93;;;;;;;25.90;41.31;102190.19;4963777;28;20677;-72
2022/06/28 10:27:52;;;;;;;3.90;1.10;;;;;;;26.05;40.93;102192.50;4929452;28;20679;-72
2022/06/28 10:30:28;;;;;;;2.20;0.82;;;;;;;26.36;39.51;102189.13;4933175;29;20233;-72
2022/06/28 10:33:13;;;;;;;2.35;1.10;;;;;;;26.39;40.23;102188.19;4932548;29;20193;-70
2022/06/28 10:35:42;;;;;;;3.95;1.13;;;;;;;25.96;40.48;102190.94;4933211;29;20227;-70
2022/06/28 10:38:07;;;;;;;2.63;0.93;;;;;;;26.70;40.29;102186.56;4963274;28;20383;-72
2022/06/28 10:40:37;;;;;;;2.83;1.00;;;;;;;25.81;40.24;102195.63;4933380;29;20536;-71
2022/06/28 10:43:03;;;;;;;4.10;1.30;;;;;;;26.25;40.83;102187.66;4933088;29;20178;-72
2022/06/28 10:46:00;;;;;;;2.58;1.10;;;;;;;26.47;40.29;102194.13;4932699;29;20301;-72
2022/06/28 10:48:26;;;;;;;2.15;1.17;;;;;;;26.66;39.76;102190.19;4932695;29;20662;-71
2022/06/28 10:50:56;;;;;;;3.72;1.08;;;;;;;26.69;38.91;102184.81;4932487;29;20183;-73
2022/06/28 10:53:23;;;;;;;2.42;1.08;;;;;;;26.95;38.13;102180.63;4932894;29;20280;-72
2022/06/28 10:56:46;;;;;;;2.40;0.90;;;;;;;27.38;38.59;102173.31;4932120;29;20272;-73
2022/06/28 10:59:18;;;;;;;1.52;1.00;;;;;;;26.79;38.73;102189.81;4892360;29;20239;-73
2022/06/28 11:01:46;;;;;;;3.10;0.90;;;;;;;26.66;38.62;102183.13;4907671;29;20222;-73
2022/06/28 11:04:23;;;;;;;3.03;0.90;;;;;;;25.72;40.18;102178.31;4930414;29;20202;-72
2022/06/28 11:06:50;;;;;;;3.42;1.00;;;;;;;25.09;38.96;102181.34;4927795;29;20284;-73
2022/06/28 11:09:32;;;;;;;2.65;1.10;;;;;;;25.93;38.67;102179.66;4944071;29;20207;-72
2022/06/28 11:12:12;;;;;;;2.45;1.17;;;;;;;26.69;38.21;102185.69;4943709;29;20648;-73
2022/06/28 11:14:47;;;;;;;2.58;1.00;;;;;;;26.90;38.06;102189.53;4913640;29;20193;-73
2022/06/28 11:17:25;;;;;;;3.05;1.05;;;;;;;27.18;37.40;102174.75;4913109;29;20197;-73
2022/06/28 11:19:53;;;;;;;3.20;1.10;;;;;;;27.45;37.03;102182.75;4912302;29;20727;-72
2022/06/28 11:22:24;;;;;;;2.40;1.10;;;;;;;27.37;36.56;102173.34;4913042;29;20273;-73
2022/06/28 11:24:51;;;;;;;2.78;1.10;;;;;;;27.53;36.72;102172.88;4943775;28;20213;-73
2022/06/28 11:27:22;;;;;;;2.60;1.10;;;;;;;26.90;38.31;102181.66;4913414;29;20194;-72
2022/06/28 11:29:50;;;;;;;1.50;0.93;;;;;;;27.06;37.90;102177.69;4913212;29;20173;-72
2022/06/28 11:32:18;;;;;;;2.85;1.17;;;;;;;27.33;38.13;102167.31;4913690;29;20194;-72
2022/06/28 11:34:54;;;;;;;2.70;1.52;;;;;;;27.07;37.17;102174.19;4913038;29;20225;-72
2022/06/28 11:37:19;;;;;;;1.77;1.00;;;;;;;27.03;37.50;102180.44;4934878;29;20169;-72
2022/06/28 11:39:45;;;;;;;3.53;1.30;;;;;;;27.40;37.55;102176.75;4950332;28;20790;-72
2022/06/28 11:42:10;;;;;;;2.92;1.30;;;;;;;26.28;37.33;102175.31;4932041;29;20690;-72